createdAt,value
2022-08-11T00:02:05.557Z,51.03
2022-08-11T00:07:20.331Z,52.21
2022-08-11T00:12:23.588Z,51.52
2022-08-11T00:17:30.331Z,51.98
2022-08-11T00:22:39.158Z,53.14
2022-08-11T00:27:43.717Z,52.78
2022-08-11T00:32:56.236Z,52.79
2022-08-11T00:38:01.600Z,53.00
2022-08-11T00:43:20.751Z,53.36
2022-08-11T00:48:29.461Z,52.81
2022-08-11T00:53:46.231Z,55.10
2022-08-11T00:59:34.152Z,53.45
2022-08-11T01:05:10.144Z,53.66
2022-08-11T01:10:43.149Z,54.71
2022-08-11T01:16:05.189Z,54.15
2022-08-11T01:21:55.215Z,54.49
2022-08-11T01:27:37.730Z,54.70
2022-08-11T01:33:14.495Z,54.79
2022-08-11T01:39:02.235Z,54.91
2022-08-11T01:44:36.685Z,55.22
2022-08-11T01:50:08.589Z,55.87
2022-08-11T01:55:19.237Z,55.87
2022-08-11T02:00:30.973Z,56.08
2022-08-11T02:06:01.278Z,55.71
2022-08-11T02:11:35.641Z,57.05
2022-08-11T02:17:00.130Z,56.62
2022-08-11T02:22:27.410Z,56.59
2022-08-11T02:27:40.999Z,56.79
2022-08-11T02:33:10.066Z,57.07
2022-08-11T02:38:20.088Z,57.06
2022-08-11T02:43:31.215Z,57.43
2022-08-11T02:49:17.352Z,57.59
2022-08-11T02:54:28.269Z,57.73
2022-08-11T02:59:53.464Z,58.27
2022-08-11T03:05:17.655Z,58.19
2022-08-11T03:10:25.401Z,58.42
2022-08-11T03:16:01.303Z,58.33
2022-08-11T03:21:11.359Z,59.05
2022-08-11T03:26:27.067Z,59.87
2022-08-11T03:31:36.328Z,59.63
2022-08-11T03:37:16.664Z,60.59
2022-08-11T03:42:28.129Z,60.25
2022-08-11T03:48:07.203Z,60.47
2022-08-11T03:53:17.832Z,60.18
2022-08-11T03:58:42.003Z,61.46
2022-08-11T04:04:19.812Z,60.31
2022-08-11T04:09:55.778Z,60.03
2022-08-11T04:15:32.153Z,60.62
2022-08-11T04:20:52.948Z,59.78
2022-08-11T04:26:22.451Z,60.35
2022-08-11T04:31:51.856Z,61.04
2022-08-11T04:37:35.771Z,60.28
2022-08-11T04:43:23.569Z,53.33
2022-08-11T04:49:11.116Z,50.31
2022-08-11T04:54:45.504Z,49.20
2022-08-11T05:00:24.501Z,51.76
2022-08-11T05:05:56.212Z,52.02
2022-08-11T05:11:12.995Z,52.78
2022-08-11T05:16:37.978Z,53.48
2022-08-11T05:22:04.614Z,53.16
2022-08-11T05:27:27.930Z,50.94
2022-08-11T05:32:59.383Z,51.43
2022-08-11T05:38:28.420Z,51.24
2022-08-11T05:44:19.933Z,50.20
2022-08-11T05:49:31.792Z,50.83
2022-08-11T05:54:54.592Z,50.03
2022-08-11T06:00:02.260Z,49.37
2022-08-11T06:05:26.543Z,47.58
2022-08-11T06:10:34.411Z,46.37
2022-08-11T06:15:46.775Z,44.22
2022-08-11T06:20:51.441Z,42.19
2022-08-11T06:25:56.319Z,41.39
2022-08-11T06:31:01.189Z,41.03
2022-08-11T06:36:07.901Z,41.15
2022-08-11T06:41:33.532Z,42.12
2022-08-11T06:46:39.157Z,41.46
2022-08-11T06:51:42.567Z,41.15
2022-08-11T06:57:28.910Z,40.45
2022-08-11T07:02:33.872Z,40.35
2022-08-11T07:08:34.322Z,40.58
2022-08-11T07:13:58.036Z,38.30
2022-08-11T07:19:21.840Z,38.04
2022-08-11T07:24:58.735Z,35.84
2022-08-11T07:30:10.612Z,37.45
2022-08-11T07:35:17.492Z,36.64
2022-08-11T07:40:23.594Z,37.03
2022-08-11T07:45:47.136Z,34.86
2022-08-11T07:51:08.042Z,33.49
2022-08-11T07:56:17.373Z,34.97
2022-08-11T08:01:45.012Z,32.47
2022-08-11T08:07:06.312Z,30.11
2022-08-11T08:12:28.037Z,31.32
2022-08-11T08:18:25.413Z,28.16
2022-08-11T08:23:15.759Z,30.12
2022-08-11T08:28:21.967Z,29.44
2022-08-11T08:33:30.431Z,28.89
2022-08-11T08:38:33.589Z,31.54
2022-08-11T08:43:49.068Z,31.36
2022-08-11T08:48:54.476Z,30.46
2022-08-11T08:54:04.743Z,29.01
2022-08-11T08:59:08.921Z,28.20
2022-08-11T09:04:18.955Z,28.79
2022-08-11T09:09:24.660Z,26.34
2022-08-11T09:14:47.439Z,27.06
2022-08-11T09:19:58.744Z,29.71
2022-08-11T09:25:19.268Z,27.14
2022-08-11T09:30:22.591Z,26.47
2022-08-11T09:35:29.117Z,25.37
2022-08-11T09:40:33.666Z,27.24
2022-08-11T09:45:40.360Z,26.82
2022-08-11T09:50:47.003Z,26.81
2022-08-11T09:55:51.972Z,27.75
2022-08-11T10:01:02.241Z,26.58
2022-08-11T10:06:33.059Z,29.27
2022-08-11T10:11:39.613Z,28.24
2022-08-11T10:16:43.460Z,28.21
2022-08-11T10:22:12.071Z,26.96
2022-08-11T10:27:16.184Z,25.94
2022-08-11T10:32:57.880Z,24.75
2022-08-11T10:38:08.253Z,25.50
2022-08-11T10:44:01.602Z,25.39
2022-08-11T10:48:42.506Z,26.57
2022-08-11T10:54:06.739Z,25.28
2022-08-11T10:59:15.594Z,23.86
2022-08-11T11:04:19.944Z,24.33
2022-08-11T11:09:30.201Z,24.41
2022-08-11T11:14:58.266Z,25.34
2022-08-11T11:20:06.772Z,24.25
2022-08-11T11:25:21.870Z,23.65
2022-08-11T11:30:33.884Z,22.51
2022-08-11T11:35:50.666Z,22.72
2022-08-11T11:41:09.302Z,22.51
2022-08-11T11:46:13.934Z,23.29
2022-08-11T11:51:17.510Z,21.88
2022-08-11T11:56:25.029Z,22.39
2022-08-11T12:01:28.866Z,21.91
2022-08-11T12:06:33.268Z,22.40
2022-08-11T12:11:57.650Z,23.27
2022-08-11T12:17:01.654Z,23.66
2022-08-11T12:22:22.598Z,21.68
2022-08-11T12:27:28.919Z,21.08
2022-08-11T12:32:35.594Z,22.18
2022-08-11T12:37:43.668Z,21.50
2022-08-11T12:43:20.781Z,21.59
2022-08-11T12:48:58.828Z,20.94
2022-08-11T12:54:22.722Z,21.21
2022-08-11T12:59:45.135Z,20.40
2022-08-11T13:04:59.297Z,20.57
2022-08-11T13:10:04.287Z,20.65
2022-08-11T13:15:11.765Z,20.60
2022-08-11T13:20:17.463Z,20.06
2022-08-11T13:25:23.013Z,20.95
2022-08-11T13:30:48.368Z,21.51
2022-08-11T13:35:55.943Z,20.77
2022-08-11T13:40:59.483Z,21.56
2022-08-11T13:46:18.028Z,21.74
2022-08-11T13:51:35.244Z,21.66
2022-08-11T13:56:40.822Z,22.04
2022-08-11T14:02:20.932Z,23.21
2022-08-11T14:07:15.713Z,22.16
2022-08-11T14:12:41.482Z,21.91
2022-08-11T14:17:48.635Z,21.99
2022-08-11T14:22:53.720Z,21.90
2022-08-11T14:28:30.498Z,21.32
2022-08-11T14:33:22.215Z,22.34
2022-08-11T14:38:25.711Z,23.23
2022-08-11T14:44:12.296Z,23.82
2022-08-11T14:49:12.127Z,23.50
2022-08-11T14:54:33.809Z,23.62
2022-08-11T14:59:37.556Z,24.41
2022-08-11T15:04:42.207Z,23.80
2022-08-11T15:10:10.146Z,23.77
2022-08-11T15:15:28.851Z,23.15
2022-08-11T15:20:53.924Z,22.52
2022-08-11T15:25:59.579Z,23.96
2022-08-11T15:31:22.169Z,24.10
2022-08-11T15:36:47.864Z,23.64
2022-08-11T15:42:16.901Z,23.94
2022-08-11T15:47:24.057Z,22.89
2022-08-11T15:52:32.969Z,23.12
2022-08-11T15:57:55.914Z,23.94
2022-08-11T16:03:18.750Z,23.78
2022-08-11T16:08:32.919Z,24.11
2022-08-11T16:13:57.547Z,23.67
2022-08-11T16:19:04.890Z,23.74
2022-08-11T16:27:03.922Z,23.69
2022-08-11T16:29:38.214Z,24.77
2022-08-11T16:35:00.427Z,24.37
2022-08-11T16:40:06.704Z,24.18
2022-08-11T16:45:33.301Z,24.43
2022-08-11T16:50:37.500Z,24.68
2022-08-11T16:55:52.642Z,25.30
2022-08-11T17:00:58.815Z,25.24
2022-08-11T17:06:20.996Z,25.64
2022-08-11T17:11:57.518Z,26.20
2022-08-11T17:17:03.989Z,26.39
2022-08-11T17:22:25.334Z,26.17
2022-08-11T17:27:31.268Z,26.88
2022-08-11T17:32:57.141Z,26.90
2022-08-11T17:38:06.667Z,27.18
2022-08-11T17:43:28.857Z,27.63
2022-08-11T17:48:34.593Z,27.58
2022-08-11T17:54:09.952Z,27.48
2022-08-11T17:59:43.803Z,28.07
2022-08-11T18:04:54.170Z,28.67
2022-08-11T18:10:15.214Z,28.33
2022-08-11T18:15:37.479Z,29.02
2022-08-11T18:21:10.973Z,29.19
2022-08-11T18:26:34.346Z,29.10
2022-08-11T18:32:02.991Z,29.49
2022-08-11T18:37:29.673Z,30.15
2022-08-11T18:42:51.827Z,30.00
2022-08-11T18:48:20.897Z,30.67
2022-08-11T18:53:42.630Z,30.83
2022-08-11T18:59:06.510Z,30.79
2022-08-11T19:04:30.064Z,31.27
2022-08-11T19:09:54.779Z,31.91
2022-08-11T19:15:17.254Z,32.71
2022-08-11T19:20:42.380Z,32.83
2022-08-11T19:26:04.437Z,33.18
2022-08-11T19:31:27.306Z,33.38
2022-08-11T19:36:50.135Z,33.63
2022-08-11T19:42:11.464Z,33.58
2022-08-11T19:47:35.378Z,33.79
2022-08-11T19:52:59.550Z,34.46
2022-08-11T19:58:20.851Z,35.35
2022-08-11T20:03:41.706Z,35.87
2022-08-11T20:09:06.112Z,35.77
2022-08-11T20:14:28.480Z,36.22
2022-08-11T20:19:55.539Z,36.66
2022-08-11T20:25:19.591Z,37.40
2022-08-11T20:30:41.329Z,36.89
2022-08-11T20:36:01.666Z,37.52
2022-08-11T20:41:26.051Z,37.95
2022-08-11T20:46:48.229Z,38.10
2022-08-11T20:52:10.091Z,38.96
2022-08-11T20:58:00.013Z,39.43
2022-08-11T21:03:35.298Z,40.30
2022-08-11T21:08:59.361Z,40.54
2022-08-11T21:14:25.977Z,40.76
2022-08-11T21:20:01.691Z,40.91
2022-08-11T21:25:29.770Z,41.62
2022-08-11T21:30:57.524Z,42.06
2022-08-11T21:36:18.190Z,42.14
2022-08-11T21:41:39.012Z,42.63
2022-08-11T21:47:00.893Z,43.72
2022-08-11T21:52:21.661Z,43.39
2022-08-11T21:57:48.102Z,43.29
2022-08-11T22:03:12.254Z,43.84
2022-08-11T22:08:33.408Z,44.16
2022-08-11T22:14:06.353Z,43.85
2022-08-11T22:19:30.650Z,44.83
2022-08-11T22:24:52.082Z,45.41
2022-08-11T22:30:13.359Z,45.01
2022-08-11T22:35:37.023Z,45.36
2022-08-11T22:40:58.100Z,45.33
2022-08-11T22:46:18.346Z,45.48
2022-08-11T22:51:42.146Z,46.44
2022-08-11T22:57:03.303Z,46.13
2022-08-11T23:02:25.594Z,46.39
2022-08-11T23:07:51.748Z,47.07
2022-08-11T23:13:13.203Z,47.51
2022-08-11T23:18:34.932Z,47.30
2022-08-11T23:23:58.458Z,47.40
2022-08-11T23:29:22.282Z,47.70
2022-08-11T23:35:04.223Z,48.21
2022-08-11T23:40:31.030Z,48.93
2022-08-11T23:45:51.360Z,48.22
2022-08-11T23:51:12.995Z,48.37
2022-08-11T23:56:35.590Z,48.91
